sensor_id;sensor_type;location;lat;lon;timestamp;pressure;altitude;pressure_sealevel;temperature;humidity
18784;BME280;9520;50.954;6.968;2022-11-15T00:00:35;100392.94;;;17.65;50.26
18784;BME280;9520;50.954;6.968;2022-11-15T00:01:17;100386.63;;;17.66;50.51
18784;BME280;9520;50.954;6.968;2022-11-15T00:01:58;100384.53;;;17.73;50.10
18784;BME280;9520;50.954;6.968;2022-11-15T00:02:40;100385.47;;;17.72;50.25
18784;BME280;9520;50.954;6.968;2022-11-15T00:03:23;100378.34;;;17.73;50.03
18784;BME280;9520;50.954;6.968;2022-11-15T00:04:03;100363.81;;;17.61;50.02
18784;BME280;9520;50.954;6.968;2022-11-15T00:04:45;100382.59;;;17.77;50.18
18784;BME280;9520;50.954;6.968;2022-11-15T00:05:25;100386.22;;;17.76;50.23
18784;BME280;9520;50.954;6.968;2022-11-15T00:06:05;100387.06;;;17.76;50.27
18784;BME280;9520;50.954;6.968;2022-11-15T00:06:46;100384.38;;;17.76;50.34
18784;BME280;9520;50.954;6.968;2022-11-15T00:07:27;100385.34;;;17.75;50.52
18784;BME280;9520;50.954;6.968;2022-11-15T00:08:29;100380.00;;;17.75;50.20
18784;BME280;9520;50.954;6.968;2022-11-15T00:09:09;100387.91;;;17.77;50.53
18784;BME280;9520;50.954;6.968;2022-11-15T00:09:50;100379.91;;;17.77;50.28
18784;BME280;9520;50.954;6.968;2022-11-15T00:10:30;100377.19;;;17.78;50.43
18784;BME280;9520;50.954;6.968;2022-11-15T00:11:12;100381.59;;;17.79;50.33
18784;BME280;9520;50.954;6.968;2022-11-15T00:11:53;100379.84;;;17.78;50.18
18784;BME280;9520;50.954;6.968;2022-11-15T00:12:34;100390.34;;;17.81;50.31
18784;BME280;9520;50.954;6.968;2022-11-15T00:13:14;100381.59;;;17.79;50.17
18784;BME280;9520;50.954;6.968;2022-11-15T00:13:56;100385.19;;;17.78;50.27
18784;BME280;9520;50.954;6.968;2022-11-15T00:14:36;100379.63;;;17.83;50.12
18784;BME280;9520;50.954;6.968;2022-11-15T00:15:17;100381.00;;;17.73;50.40
18784;BME280;9520;50.954;6.968;2022-11-15T00:15:58;100386.97;;;17.78;50.38
18784;BME280;9520;50.954;6.968;2022-11-15T00:16:40;100387.16;;;17.75;50.69
18784;BME280;9520;50.954;6.968;2022-11-15T00:17:20;100375.25;;;17.63;50.92
18784;BME280;9520;50.954;6.968;2022-11-15T00:18:03;100359.53;;;17.57;50.93
18784;BME280;9520;50.954;6.968;2022-11-15T00:18:43;100384.47;;;17.75;50.75
18784;BME280;9520;50.954;6.968;2022-11-15T00:19:29;100387.06;;;17.76;50.86
18784;BME280;9520;50.954;6.968;2022-11-15T00:20:11;100384.19;;;17.81;50.70
18784;BME280;9520;50.954;6.968;2022-11-15T00:20:51;100394.84;;;17.81;50.84
18784;BME280;9520;50.954;6.968;2022-11-15T00:21:31;100388.66;;;17.80;50.80
18784;BME280;9520;50.954;6.968;2022-11-15T00:22:12;100384.88;;;17.84;50.61
18784;BME280;9520;50.954;6.968;2022-11-15T00:22:53;100386.63;;;17.85;50.75
18784;BME280;9520;50.954;6.968;2022-11-15T00:23:33;100385.75;;;17.85;50.80
18784;BME280;9520;50.954;6.968;2022-11-15T00:24:15;100386.63;;;17.85;50.93
18784;BME280;9520;50.954;6.968;2022-11-15T00:24:55;100385.59;;;17.88;50.85
18784;BME280;9520;50.954;6.968;2022-11-15T00:25:36;100384.88;;;17.84;50.54
18784;BME280;9520;50.954;6.968;2022-11-15T00:26:16;100381.94;;;17.90;50.81
18784;BME280;9520;50.954;6.968;2022-11-15T00:26:57;100388.94;;;17.74;51.12
18784;BME280;9520;50.954;6.968;2022-11-15T00:27:38;100381.81;;;17.75;51.18
18784;BME280;9520;50.954;6.968;2022-11-15T00:28:19;100387.63;;;17.83;51.30
18784;BME280;9520;50.954;6.968;2022-11-15T00:28:59;100395.31;;;17.89;51.04
18784;BME280;9520;50.954;6.968;2022-11-15T00:29:40;100385.59;;;17.88;51.00
18784;BME280;9520;50.954;6.968;2022-11-15T00:30:22;100385.03;;;17.81;51.34
18784;BME280;9520;50.954;6.968;2022-11-15T00:31:05;100382.06;;;17.87;51.13
18784;BME280;9520;50.954;6.968;2022-11-15T00:31:46;100378.22;;;17.93;50.94
18784;BME280;9520;50.954;6.968;2022-11-15T00:32:30;100382.16;;;17.86;51.02
18784;BME280;9520;50.954;6.968;2022-11-15T00:33:12;100384.50;;;17.92;51.09
18784;BME280;9520;50.954;6.968;2022-11-15T00:33:53;100382.47;;;17.97;51.00
18784;BME280;9520;50.954;6.968;2022-11-15T00:34:33;100383.97;;;17.85;51.32
18784;BME280;9520;50.954;6.968;2022-11-15T00:35:15;100384.44;;;17.93;51.06
18784;BME280;9520;50.954;6.968;2022-11-15T00:35:59;100385.00;;;18.00;51.23
18784;BME280;9520;50.954;6.968;2022-11-15T00:36:40;100378.63;;;18.02;50.88
18784;BME280;9520;50.954;6.968;2022-11-15T00:37:21;100377.63;;;18.05;50.65
18784;BME280;9520;50.954;6.968;2022-11-15T00:38:02;100374.84;;;18.06;50.89
18784;BME280;9520;50.954;6.968;2022-11-15T00:38:42;100382.78;;;18.08;50.94
18784;BME280;9520;50.954;6.968;2022-11-15T00:39:23;100376.34;;;18.12;50.77
18784;BME280;9520;50.954;6.968;2022-11-15T00:40:05;100375.72;;;18.07;50.89
18784;BME280;9520;50.954;6.968;2022-11-15T00:40:45;100374.78;;;17.91;51.05
18784;BME280;9520;50.954;6.968;2022-11-15T00:41:26;100382.09;;;18.04;51.17
18784;BME280;9520;50.954;6.968;2022-11-15T00:42:06;100387.81;;;18.14;50.79
18784;BME280;9520;50.954;6.968;2022-11-15T00:42:48;100386.78;;;18.17;50.52
18784;BME280;9520;50.954;6.968;2022-11-15T00:43:28;100375.97;;;18.20;50.72
18784;BME280;9520;50.954;6.968;2022-11-15T00:44:09;100384.59;;;18.25;50.67
18784;BME280;9520;50.954;6.968;2022-11-15T00:44:50;100387.59;;;18.19;50.54
18784;BME280;9520;50.954;6.968;2022-11-15T00:45:30;100378.41;;;18.24;50.57
18784;BME280;9520;50.954;6.968;2022-11-15T00:46:11;100378.41;;;18.24;50.71
18784;BME280;9520;50.954;6.968;2022-11-15T00:46:52;100377.38;;;18.27;50.48
18784;BME280;9520;50.954;6.968;2022-11-15T00:47:33;100382.31;;;18.34;50.52
18784;BME280;9520;50.954;6.968;2022-11-15T00:48:15;100381.06;;;18.24;50.60
18784;BME280;9520;50.954;6.968;2022-11-15T00:48:55;100386.19;;;18.29;50.42
18784;BME280;9520;50.954;6.968;2022-11-15T00:49:36;100382.47;;;18.31;50.56
18784;BME280;9520;50.954;6.968;2022-11-15T00:50:17;100383.97;;;18.37;50.31
18784;BME280;9520;50.954;6.968;2022-11-15T00:50:58;100369.59;;;18.39;50.31
18784;BME280;9520;50.954;6.968;2022-11-15T00:51:39;100380.97;;;18.43;50.11
18784;BME280;9520;50.954;6.968;2022-11-15T00:52:20;100381.66;;;18.46;50.10
18784;BME280;9520;50.954;6.968;2022-11-15T00:53:01;100378.84;;;18.49;50.14
18784;BME280;9520;50.954;6.968;2022-11-15T00:53:41;100381.53;;;18.49;49.95
18784;BME280;9520;50.954;6.968;2022-11-15T00:54:22;100376.00;;;18.52;50.01
18784;BME280;9520;50.954;6.968;2022-11-15T00:55:03;100378.69;;;18.52;50.03
18784;BME280;9520;50.954;6.968;2022-11-15T00:55:43;100384.84;;;18.54;50.02
18784;BME280;9520;50.954;6.968;2022-11-15T00:56:25;100386.50;;;18.57;49.97
18784;BME280;9520;50.954;6.968;2022-11-15T00:57:05;100374.06;;;18.56;49.90
18784;BME280;9520;50.954;6.968;2022-11-15T00:57:46;100381.94;;;18.59;49.90
18784;BME280;9520;50.954;6.968;2022-11-15T00:58:27;100370.28;;;18.60;49.81
18784;BME280;9520;50.954;6.968;2022-11-15T00:59:08;100370.28;;;18.60;49.90
18784;BME280;9520;50.954;6.968;2022-11-15T00:59:48;100372.88;;;18.62;49.61
18784;BME280;9520;50.954;6.968;2022-11-15T01:00:28;100370.28;;;18.60;49.55
18784;BME280;9520;50.954;6.968;2022-11-15T01:01:12;100374.63;;;18.63;49.69
18784;BME280;9520;50.954;6.968;2022-11-15T01:01:52;100370.16;;;18.63;49.77
18784;BME280;9520;50.954;6.968;2022-11-15T01:02:34;100372.88;;;18.62;50.00
18784;BME280;9520;50.954;6.968;2022-11-15T01:03:16;100372.03;;;18.61;49.80
18784;BME280;9520;50.954;6.968;2022-11-15T01:03:56;100369.22;;;18.64;49.84
18784;BME280;9520;50.954;6.968;2022-11-15T01:04:40;100371.69;;;18.67;49.62
18784;BME280;9520;50.954;6.968;2022-11-15T01:05:21;100376.34;;;18.64;50.00
18784;BME280;9520;50.954;6.968;2022-11-15T01:06:02;100371.88;;;18.64;49.89
18784;BME280;9520;50.954;6.968;2022-11-15T01:06:43;100370.22;;;18.62;50.06
18784;BME280;9520;50.954;6.968;2022-11-15T01:07:24;100363.25;;;18.59;49.86
18784;BME280;9520;50.954;6.968;2022-11-15T01:08:04;100368.41;;;18.62;49.89
18784;BME280;9520;50.954;6.968;2022-11-15T01:08:45;100376.25;;;18.65;49.95
18784;BME280;9520;50.954;6.968;2022-11-15T01:09:26;100363.06;;;18.62;49.95
18784;BME280;9520;50.954;6.968;2022-11-15T01:10:07;100373.50;;;18.67;49.88
18784;BME280;9520;50.954;6.968;2022-11-15T01:10:48;100369.97;;;18.66;50.05
18784;BME280;9520;50.954;6.968;2022-11-15T01:11:28;100375.97;;;18.54;50.29
18784;BME280;9520;50.954;6.968;2022-11-15T01:12:09;100378.31;;;18.60;50.11
18784;BME280;9520;50.954;6.968;2022-11-15T01:12:50;100379.09;;;18.62;50.06
18784;BME280;9520;50.954;6.968;2022-11-15T01:13:31;100368.66;;;18.58;49.94
18784;BME280;9520;50.954;6.968;2022-11-15T01:14:13;100363.94;;;18.63;50.02
18784;BME280;9520;50.954;6.968;2022-11-15T01:14:53;100367.41;;;18.65;49.98
18784;BME280;9520;50.954;6.968;2022-11-15T01:15:34;100340.38;;;18.53;49.99
18784;BME280;9520;50.954;6.968;2022-11-15T01:16:17;100364.47;;;18.69;49.94
18784;BME280;9520;50.954;6.968;2022-11-15T01:16:58;100363.75;;;18.66;49.95
18784;BME280;9520;50.954;6.968;2022-11-15T01:17:39;100363.50;;;18.70;49.96
18784;BME280;9520;50.954;6.968;2022-11-15T01:18:21;100360.31;;;18.64;50.23
18784;BME280;9520;50.954;6.968;2022-11-15T01:19:02;100363.75;;;18.66;50.02
18784;BME280;9520;50.954;6.968;2022-11-15T01:19:43;100359.28;;;18.66;50.12
18784;BME280;9520;50.954;6.968;2022-11-15T01:20:24;100353.88;;;18.68;50.08
18784;BME280;9520;50.954;6.968;2022-11-15T01:21:05;100353.78;;;18.69;50.06
18784;BME280;9520;50.954;6.968;2022-11-15T01:21:48;100358.34;;;18.67;50.08
18784;BME280;9520;50.954;6.968;2022-11-15T01:22:29;100352.75;;;18.72;50.09
18784;BME280;9520;50.954;6.968;2022-11-15T01:23:10;100357.41;;;18.68;50.01
18784;BME280;9520;50.954;6.968;2022-11-15T01:23:52;100350.34;;;18.67;50.10
18784;BME280;9520;50.954;6.968;2022-11-15T01:24:33;100359.13;;;18.69;50.07
18784;BME280;9520;50.954;6.968;2022-11-15T01:25:14;100358.97;;;18.72;50.06
18784;BME280;9520;50.954;6.968;2022-11-15T01:25:58;100354.47;;;18.73;50.00
18784;BME280;9520;50.954;6.968;2022-11-15T01:26:40;100359.75;;;18.74;50.07
18784;BME280;9520;50.954;6.968;2022-11-15T01:27:20;100359.75;;;18.74;49.99
18784;BME280;9520;50.954;6.968;2022-11-15T01:28:01;100359.66;;;18.76;50.09
18784;BME280;9520;50.954;6.968;2022-11-15T01:28:42;100359.28;;;18.66;50.12
18784;BME280;9520;50.954;6.968;2022-11-15T01:29:23;100364.38;;;18.71;50.07
18784;BME280;9520;50.954;6.968;2022-11-15T01:30:05;100359.78;;;18.57;50.44
18784;BME280;9520;50.954;6.968;2022-11-15T01:30:46;100368.84;;;18.54;50.73
18784;BME280;9520;50.954;6.968;2022-11-15T01:31:36;100351.84;;;18.55;50.53
18784;BME280;9520;50.954;6.968;2022-11-15T01:32:17;100366.59;;;18.63;50.61
18784;BME280;9520;50.954;6.968;2022-11-15T01:32:58;100347.50;;;18.53;50.63
18784;BME280;9520;50.954;6.968;2022-11-15T01:33:41;100364.81;;;18.63;50.35
18784;BME280;9520;50.954;6.968;2022-11-15T01:34:21;100370.84;;;18.67;50.46
18784;BME280;9520;50.954;6.968;2022-11-15T01:35:03;100373.06;;;18.59;50.73
18784;BME280;9520;50.954;6.968;2022-11-15T01:35:43;100363.88;;;18.64;50.70
18784;BME280;9520;50.954;6.968;2022-11-15T01:36:25;100370.69;;;18.70;50.48
18784;BME280;9520;50.954;6.968;2022-11-15T01:37:05;100368.03;;;18.70;50.35
18784;BME280;9520;50.954;6.968;2022-11-15T01:37:46;100367.16;;;18.69;50.41
18784;BME280;9520;50.954;6.968;2022-11-15T01:38:27;100373.94;;;18.59;50.78
18784;BME280;9520;50.954;6.968;2022-11-15T01:39:08;100363.94;;;18.63;50.62
18784;BME280;9520;50.954;6.968;2022-11-15T01:39:48;100366.44;;;18.66;50.53
18784;BME280;9520;50.954;6.968;2022-11-15T01:40:30;100368.47;;;18.61;50.71
18784;BME280;9520;50.954;6.968;2022-11-15T01:41:15;100363.69;;;18.67;50.57
18784;BME280;9520;50.954;6.968;2022-11-15T01:41:57;100370.59;;;18.71;50.47
18784;BME280;9520;50.954;6.968;2022-11-15T01:42:37;100357.78;;;18.78;50.47
18784;BME280;9520;50.954;6.968;2022-11-15T01:43:19;100357.69;;;18.79;50.28
18784;BME280;9520;50.954;6.968;2022-11-15T01:45:23;100360.97;;;18.84;50.37
18784;BME280;9520;50.954;6.968;2022-11-15T01:46:14;100361.94;;;18.83;50.20
18784;BME280;9520;50.954;6.968;2022-11-15T01:46:59;100352.19;;;18.82;50.25
18784;BME280;9520;50.954;6.968;2022-11-15T01:47:43;100345.63;;;18.88;50.15
18784;BME280;9520;50.954;6.968;2022-11-15T01:48:31;100347.44;;;18.87;49.96
18784;BME280;9520;50.954;6.968;2022-11-15T01:49:15;100342.09;;;18.87;50.19
18784;BME280;9520;50.954;6.968;2022-11-15T01:50:00;100343.84;;;18.88;50.00
18784;BME280;9520;50.954;6.968;2022-11-15T01:50:42;100349.19;;;18.88;49.98
18784;BME280;9520;50.954;6.968;2022-11-15T01:51:24;100345.72;;;18.86;50.04
18784;BME280;9520;50.954;6.968;2022-11-15T01:52:11;100353.72;;;18.86;50.15
18784;BME280;9520;50.954;6.968;2022-11-15T01:52:52;100339.06;;;18.78;50.30
18784;BME280;9520;50.954;6.968;2022-11-15T01:53:33;100354.06;;;18.80;50.39
18784;BME280;9520;50.954;6.968;2022-11-15T01:54:16;100347.84;;;18.80;50.27
18784;BME280;9520;50.954;6.968;2022-11-15T01:55:03;100349.44;;;18.84;50.38
18784;BME280;9520;50.954;6.968;2022-11-15T01:55:45;100339.44;;;18.87;50.06
18784;BME280;9520;50.954;6.968;2022-11-15T01:56:29;100338.63;;;18.85;50.01
18784;BME280;9520;50.954;6.968;2022-11-15T01:57:11;100342.78;;;18.91;50.05
18784;BME280;9520;50.954;6.968;2022-11-15T01:57:55;100340.81;;;18.94;50.01
18784;BME280;9520;50.954;6.968;2022-11-15T01:58:39;100341.78;;;18.93;49.92
18784;BME280;9520;50.954;6.968;2022-11-15T01:59:21;100332.78;;;18.94;49.80
18784;BME280;9520;50.954;6.968;2022-11-15T02:00:04;100341.50;;;18.98;49.95
18784;BME280;9520;50.954;6.968;2022-11-15T02:00:45;100335.38;;;18.96;49.81
18784;BME280;9520;50.954;6.968;2022-11-15T02:01:28;100343.31;;;18.97;49.82
18784;BME280;9520;50.954;6.968;2022-11-15T02:02:10;100344.19;;;18.98;49.74
18784;BME280;9520;50.954;6.968;2022-11-15T02:02:52;100334.50;;;18.95;49.93
18784;BME280;9520;50.954;6.968;2022-11-15T02:03:38;100331.75;;;18.97;49.75
18784;BME280;9520;50.954;6.968;2022-11-15T02:04:26;100338.91;;;18.96;50.02
18784;BME280;9520;50.954;6.968;2022-11-15T02:05:07;100331.69;;;18.98;49.81
18784;BME280;9520;50.954;6.968;2022-11-15T02:05:48;100330.56;;;19.03;49.85
18784;BME280;9520;50.954;6.968;2022-11-15T02:06:31;100330.50;;;19.04;49.82
18784;BME280;9520;50.954;6.968;2022-11-15T02:07:13;100325.47;;;18.98;49.88
18784;BME280;9520;50.954;6.968;2022-11-15T02:07:56;100325.28;;;19.01;49.97
18784;BME280;9520;50.954;6.968;2022-11-15T02:08:37;100318.16;;;19.02;50.00
18784;BME280;9520;50.954;6.968;2022-11-15T02:09:18;100328.75;;;19.03;49.94
18784;BME280;9520;50.954;6.968;2022-11-15T02:10:02;100333.25;;;19.03;49.72
18784;BME280;9520;50.954;6.968;2022-11-15T02:10:45;100330.72;;;18.99;50.04
18784;BME280;9520;50.954;6.968;2022-11-15T02:11:26;100313.31;;;18.92;50.13
18784;BME280;9520;50.954;6.968;2022-11-15T02:12:09;100316.66;;;18.96;50.02
18784;BME280;9520;50.954;6.968;2022-11-15T02:12:53;100313.13;;;18.95;50.00
18784;BME280;9520;50.954;6.968;2022-11-15T02:13:36;100324.69;;;18.96;50.21
18784;BME280;9520;50.954;6.968;2022-11-15T02:14:18;100316.00;;;18.92;50.26
18784;BME280;9520;50.954;6.968;2022-11-15T02:15:00;100314.19;;;18.93;50.18
18784;BME280;9520;50.954;6.968;2022-11-15T02:15:52;100317.47;;;18.98;50.10
18784;BME280;9520;50.954;6.968;2022-11-15T02:16:49;100312.72;;;19.03;50.20
18784;BME280;9520;50.954;6.968;2022-11-15T02:17:51;100310.03;;;19.03;49.88
18784;BME280;9520;50.954;6.968;2022-11-15T02:18:38;100310.91;;;19.04;50.06
18784;BME280;9520;50.954;6.968;2022-11-15T02:19:47;100311.66;;;19.06;49.95
18784;BME280;9520;50.954;6.968;2022-11-15T02:20:49;100307.25;;;19.05;49.89
18784;BME280;9520;50.954;6.968;2022-11-15T02:21:36;100303.84;;;19.03;49.87
18784;BME280;9520;50.954;6.968;2022-11-15T02:22:28;100305.38;;;19.07;50.08
18784;BME280;9520;50.954;6.968;2022-11-15T02:25:53;100304.50;;;19.06;50.00
18784;BME280;9520;50.954;6.968;2022-11-15T02:28:06;100309.34;;;18.99;50.29
18784;BME280;9520;50.954;6.968;2022-11-15T02:28:58;100313.84;;;18.99;50.56
18784;BME280;9520;50.954;6.968;2022-11-15T02:29:59;100299.34;;;18.87;50.37
18784;BME280;9520;50.954;6.968;2022-11-15T02:30:45;100299.75;;;18.95;50.56
18784;BME280;9520;50.954;6.968;2022-11-15T02:31:31;100307.97;;;18.92;50.63
18784;BME280;9520;50.954;6.968;2022-11-15T02:32:17;100299.00;;;18.93;50.66
18784;BME280;9520;50.954;6.968;2022-11-15T02:33:01;100303.38;;;18.94;50.60
18784;BME280;9520;50.954;6.968;2022-11-15T02:33:53;100314.00;;;18.96;50.49
18784;BME280;9520;50.954;6.968;2022-11-15T02:34:47;100307.28;;;18.89;50.73
18784;BME280;9520;50.954;6.968;2022-11-15T02:35:40;100309.84;;;18.90;50.75
18784;BME280;9520;50.954;6.968;2022-11-15T02:36:33;100306.31;;;18.90;50.78
18784;BME280;9520;50.954;6.968;2022-11-15T02:37:21;100301.72;;;18.76;50.94
18784;BME280;9520;50.954;6.968;2022-11-15T02:38:08;100298.53;;;18.85;50.79
18784;BME280;9520;50.954;6.968;2022-11-15T02:38:59;100298.41;;;18.88;50.83
18784;BME280;9520;50.954;6.968;2022-11-15T02:39:46;100302.25;;;18.83;50.99
18784;BME280;9520;50.954;6.968;2022-11-15T02:40:35;100283.47;;;18.69;51.25
18784;BME280;9520;50.954;6.968;2022-11-15T02:41:23;100294.00;;;18.87;51.04
18784;BME280;9520;50.954;6.968;2022-11-15T02:42:11;100289.25;;;18.77;51.27
18784;BME280;9520;50.954;6.968;2022-11-15T02:43:10;100292.16;;;18.72;51.45
18784;BME280;9520;50.954;6.968;2022-11-15T02:44:15;100294.00;;;18.87;50.98
18784;BME280;9520;50.954;6.968;2022-11-15T02:44:58;100300.00;;;18.75;51.13
18784;BME280;9520;50.954;6.968;2022-11-15T02:45:46;100305.28;;;18.77;51.45
18784;BME280;9520;50.954;6.968;2022-11-15T02:46:34;100292.97;;;18.74;51.45
18784;BME280;9520;50.954;6.968;2022-11-15T02:47:38;100291.22;;;18.73;51.37
18784;BME280;9520;50.954;6.968;2022-11-15T02:48:22;100294.25;;;18.83;51.35
18784;BME280;9520;50.954;6.968;2022-11-15T02:49:05;100288.91;;;18.83;51.16
18784;BME280;9520;50.954;6.968;2022-11-15T02:49:47;100282.94;;;18.78;51.40
18784;BME280;9520;50.954;6.968;2022-11-15T02:50:29;100285.56;;;18.79;51.27
18784;BME280;9520;50.954;6.968;2022-11-15T02:51:11;100289.50;;;18.88;51.17
18784;BME280;9520;50.954;6.968;2022-11-15T02:51:54;100283.31;;;18.87;51.09
18784;BME280;9520;50.954;6.968;2022-11-15T02:52:36;100284.84;;;18.91;51.08
18784;BME280;9520;50.954;6.968;2022-11-15T02:53:16;100287.19;;;18.97;50.97
18784;BME280;9520;50.954;6.968;2022-11-15T02:53:57;100288.91;;;18.98;50.80
18784;BME280;9520;50.954;6.968;2022-11-15T02:54:38;100288.75;;;19.02;50.60
18784;BME280;9520;50.954;6.968;2022-11-15T02:55:29;100288.66;;;18.87;51.12
18784;BME280;9520;50.954;6.968;2022-11-15T02:56:11;100282.97;;;18.93;51.07
18784;BME280;9520;50.954;6.968;2022-11-15T02:56:53;100283.13;;;18.90;51.11
18784;BME280;9520;50.954;6.968;2022-11-15T02:57:45;100276.84;;;18.91;51.10
18784;BME280;9520;50.954;6.968;2022-11-15T02:58:43;100272.97;;;18.97;50.93
18784;BME280;9520;50.954;6.968;2022-11-15T02:59:43;100282.59;;;18.99;50.96
18784;BME280;9520;50.954;6.968;2022-11-15T03:00:24;100274.50;;;19.01;50.78
18784;BME280;9520;50.954;6.968;2022-11-15T03:01:11;100264.25;;;18.93;50.93
18784;BME280;9520;50.954;6.968;2022-11-15T03:02:04;100273.91;;;18.96;51.01
18784;BME280;9520;50.954;6.968;2022-11-15T03:03:12;100262.34;;;18.95;51.22
18784;BME280;9520;50.954;6.968;2022-11-15T03:04:02;100268.16;;;19.04;50.93
18784;BME280;9520;50.954;6.968;2022-11-15T03:04:52;100270.72;;;19.05;50.72
18784;BME280;9520;50.954;6.968;2022-11-15T03:05:41;100269.69;;;19.08;50.73
18784;BME280;9520;50.954;6.968;2022-11-15T03:06:31;100269.69;;;19.08;50.77
18784;BME280;9520;50.954;6.968;2022-11-15T03:07:20;100268.63;;;18.94;50.99
18784;BME280;9520;50.954;6.968;2022-11-15T03:08:07;100262.28;;;18.97;51.04
18784;BME280;9520;50.954;6.968;2022-11-15T03:08:57;100261.06;;;18.87;51.33
18784;BME280;9520;50.954;6.968;2022-11-15T03:09:47;100258.31;;;18.88;51.21
18784;BME280;9520;50.954;6.968;2022-11-15T03:10:37;100259.84;;;18.92;51.20
18784;BME280;9520;50.954;6.968;2022-11-15T03:11:22;100272.09;;;18.96;51.15
18784;BME280;9520;50.954;6.968;2022-11-15T03:12:07;100267.00;;;18.92;51.26
18784;BME280;9520;50.954;6.968;2022-11-15T03:12:55;100272.28;;;18.93;51.21
18784;BME280;9520;50.954;6.968;2022-11-15T03:13:38;100272.28;;;18.93;51.10
18784;BME280;9520;50.954;6.968;2022-11-15T03:14:23;100267.53;;;18.98;50.99
18784;BME280;9520;50.954;6.968;2022-11-15T03:15:09;100274.25;;;19.06;50.68
18784;BME280;9520;50.954;6.968;2022-11-15T03:15:56;100266.22;;;19.06;50.69
18784;BME280;9520;50.954;6.968;2022-11-15T03:16:47;100275.19;;;19.05;50.89
18784;BME280;9520;50.954;6.968;2022-11-15T03:17:34;100277.84;;;19.05;50.98
18784;BME280;9520;50.954;6.968;2022-11-15T03:18:19;100273.38;;;19.05;50.92
18784;BME280;9520;50.954;6.968;2022-11-15T03:19:06;100277.78;;;19.06;50.95
18784;BME280;9520;50.954;6.968;2022-11-15T03:19:50;100273.13;;;19.10;50.75
18784;BME280;9520;50.954;6.968;2022-11-15T03:20:34;100267.97;;;19.07;50.59
18784;BME280;9520;50.954;6.968;2022-11-15T03:21:16;100275.53;;;19.14;50.61
18784;BME280;9520;50.954;6.968;2022-11-15T03:22:01;100280.03;;;19.14;50.75
18784;BME280;9520;50.954;6.968;2022-11-15T03:22:44;100277.00;;;19.20;50.66
18784;BME280;9520;50.954;6.968;2022-11-15T03:23:28;100277.00;;;19.20;50.50
18784;BME280;9520;50.954;6.968;2022-11-15T03:24:12;100275.19;;;19.20;50.41
18784;BME280;9520;50.954;6.968;2022-11-15T03:24:57;100270.09;;;19.16;50.32
18784;BME280;9520;50.954;6.968;2022-11-15T03:25:42;100276.91;;;19.21;50.25
18784;BME280;9520;50.954;6.968;2022-11-15T03:26:25;100269.16;;;19.17;50.51
18784;BME280;9520;50.954;6.968;2022-11-15T03:27:06;100272.78;;;19.16;50.60
18784;BME280;9520;50.954;6.968;2022-11-15T03:27:52;100264.75;;;19.16;50.68
18784;BME280;9520;50.954;6.968;2022-11-15T03:28:38;100271.16;;;19.13;50.69
18784;BME280;9520;50.954;6.968;2022-11-15T03:29:24;100274.84;;;19.11;50.50
18784;BME280;9520;50.954;6.968;2022-11-15T03:30:08;100262.69;;;19.05;50.75
18784;BME280;9520;50.954;6.968;2022-11-15T03:30:49;100278.03;;;19.17;50.63
18784;BME280;9520;50.954;6.968;2022-11-15T03:31:36;100283.13;;;19.06;50.80
18784;BME280;9520;50.954;6.968;2022-11-15T03:32:34;100267.44;;;19.16;50.82
18784;BME280;9520;50.954;6.968;2022-11-15T03:33:17;100282.44;;;19.18;50.61
18784;BME280;9520;50.954;6.968;2022-11-15T03:34:02;100269.09;;;19.03;50.78
18784;BME280;9520;50.954;6.968;2022-11-15T03:34:47;100258.72;;;18.96;50.82
18784;BME280;9520;50.954;6.968;2022-11-15T03:35:32;100270.03;;;19.02;51.01
18784;BME280;9520;50.954;6.968;2022-11-15T03:36:15;100270.97;;;19.01;50.96
18784;BME280;9520;50.954;6.968;2022-11-15T03:36:56;100267.53;;;18.98;51.06
18784;BME280;9520;50.954;6.968;2022-11-15T03:37:41;100278.66;;;19.07;50.98
18784;BME280;9520;50.954;6.968;2022-11-15T03:38:25;100277.72;;;19.08;50.87
18784;BME280;9520;50.954;6.968;2022-11-15T03:39:08;100271.06;;;18.99;51.01
18784;BME280;9520;50.954;6.968;2022-11-15T03:39:49;100266.41;;;19.03;50.95
18784;BME280;9520;50.954;6.968;2022-11-15T03:40:34;100265.88;;;18.96;51.15
18784;BME280;9520;50.954;6.968;2022-11-15T03:41:22;100268.63;;;18.94;51.29
18784;BME280;9520;50.954;6.968;2022-11-15T03:42:13;100275.28;;;19.03;51.15
18784;BME280;9520;50.954;6.968;2022-11-15T03:43:02;100264.41;;;18.90;51.25
18784;BME280;9520;50.954;6.968;2022-11-15T03:43:50;100261.72;;;18.75;51.67
18784;BME280;9520;50.954;6.968;2022-11-15T03:44:38;100269.06;;;18.87;51.49
18784;BME280;9520;50.954;6.968;2022-11-15T03:45:25;100269.69;;;18.92;51.29
18784;BME280;9520;50.954;6.968;2022-11-15T03:46:11;100268.47;;;18.97;51.09
18784;BME280;9520;50.954;6.968;2022-11-15T03:46:58;100263.06;;;18.99;51.18
18784;BME280;9520;50.954;6.968;2022-11-15T03:47:43;100268.28;;;19.01;51.04
18784;BME280;9520;50.954;6.968;2022-11-15T03:48:32;100270.09;;;19.00;51.18
18784;BME280;9520;50.954;6.968;2022-11-15T03:49:17;100268.28;;;19.01;51.33
18784;BME280;9520;50.954;6.968;2022-11-15T03:50:02;100263.88;;;18.99;51.10
18784;BME280;9520;50.954;6.968;2022-11-15T03:50:46;100248.63;;;19.02;51.09
18784;BME280;9520;50.954;6.968;2022-11-15T03:51:28;100257.34;;;19.05;51.03
18784;BME280;9520;50.954;6.968;2022-11-15T03:52:09;100257.00;;;19.11;50.95
18784;BME280;9520;50.954;6.968;2022-11-15T03:52:53;100254.59;;;19.07;51.03
18784;BME280;9520;50.954;6.968;2022-11-15T03:53:34;100254.41;;;19.10;51.01
18784;BME280;9520;50.954;6.968;2022-11-15T03:54:14;100252.84;;;19.06;51.09
18784;BME280;9520;50.954;6.968;2022-11-15T03:54:56;100264.34;;;19.08;51.03
18784;BME280;9520;50.954;6.968;2022-11-15T03:55:37;100262.09;;;19.00;51.19
18784;BME280;9520;50.954;6.968;2022-11-15T03:56:18;100262.59;;;19.07;51.11
18784;BME280;9520;50.954;6.968;2022-11-15T03:56:58;100258.13;;;19.07;51.03
18784;BME280;9520;50.954;6.968;2022-11-15T03:57:38;100267.50;;;19.14;50.93
18784;BME280;9520;50.954;6.968;2022-11-15T03:58:19;100256.06;;;19.12;50.82